createdAt,value
2023-01-08T00:01:29.420Z,100217.56
2023-01-08T00:03:57.293Z,100215.84
2023-01-08T00:06:25.398Z,100206.70
2023-01-08T00:08:53.772Z,100207.04
2023-01-08T00:11:21.508Z,100211.37
2023-01-08T00:13:49.366Z,100208.27
2023-01-08T00:16:18.984Z,100207.73
2023-01-08T00:18:47.511Z,100200.48
2023-01-08T00:21:15.361Z,100198.07
2023-01-08T00:23:43.201Z,100202.73
2023-01-08T00:26:11.424Z,100198.42
2023-01-08T00:28:40.460Z,100201.19
2023-01-08T00:31:11.574Z,100199.12
2023-01-08T00:33:41.407Z,100195.15
2023-01-08T00:36:12.569Z,100193.59
2023-01-08T00:38:40.946Z,100192.39
2023-01-08T00:41:09.672Z,100191.36
2023-01-08T00:43:38.047Z,100183.41
2023-01-08T00:46:06.952Z,100178.58
2023-01-08T00:48:38.975Z,100180.98
2023-01-08T00:51:08.515Z,100175.13
2023-01-08T00:53:38.382Z,100178.23
2023-01-08T00:56:11.172Z,100180.83
2023-01-08T00:58:39.274Z,100175.48
2023-01-08T01:01:13.217Z,100177.02
2023-01-08T01:03:42.475Z,100174.96
2023-01-08T01:06:11.751Z,100177.39
2023-01-08T01:08:39.605Z,100173.41
2023-01-08T01:11:17.966Z,100172.90
2023-01-08T01:13:45.836Z,100168.59
2023-01-08T01:16:13.707Z,100169.28
2023-01-08T01:18:41.548Z,100164.78
2023-01-08T01:21:30.638Z,100162.40
2023-01-08T01:24:04.582Z,100168.77
2023-01-08T01:26:34.610Z,100169.99
2023-01-08T01:29:02.520Z,100166.73
2023-01-08T01:31:31.957Z,100162.75
2023-01-08T01:33:59.898Z,100162.75
2023-01-08T01:36:28.137Z,100160.34
2023-01-08T01:38:57.820Z,100161.56
2023-01-08T01:41:29.998Z,100161.90
2023-01-08T01:44:00.724Z,100157.57
2023-01-08T01:46:44.502Z,100155.68
2023-01-08T01:49:18.069Z,100147.74
2023-01-08T01:51:55.941Z,100140.33
2023-01-08T01:54:24.905Z,100137.23
2023-01-08T01:56:52.895Z,100137.73
2023-01-08T01:59:20.834Z,100128.08
2023-01-08T02:01:50.468Z,100129.83
2023-01-08T02:04:18.625Z,100121.89
2023-01-08T02:07:05.039Z,100114.64
2023-01-08T02:09:51.702Z,100108.44
2023-01-08T02:12:39.236Z,100102.40
2023-01-08T02:15:25.517Z,100099.30
2023-01-08T02:17:59.428Z,100099.63
2023-01-08T02:20:35.288Z,100096.70
2023-01-08T02:23:22.139Z,100098.06
2023-01-08T02:25:58.767Z,100088.92
2023-01-08T02:28:27.605Z,100087.37
2023-01-08T02:30:56.876Z,100081.00
2023-01-08T02:33:29.279Z,100085.46
2023-01-08T02:36:12.967Z,100081.86
2023-01-08T02:39:02.698Z,100083.76
2023-01-08T02:41:40.973Z,100088.06
2023-01-08T02:44:13.180Z,100088.06
2023-01-08T02:46:42.081Z,100083.06
2023-01-08T02:49:13.561Z,100077.72
2023-01-08T02:51:47.986Z,100073.59
2023-01-08T02:54:26.599Z,100071.02
2023-01-08T02:57:01.387Z,100067.05
2023-01-08T02:59:31.861Z,100068.44
2023-01-08T03:02:02.622Z,100066.20
2023-01-08T03:04:36.841Z,100072.77
2023-01-08T03:07:04.627Z,100067.08
2023-01-08T03:09:32.949Z,100070.00
2023-01-08T03:12:09.963Z,100069.51
2023-01-08T03:14:44.240Z,100064.84
2023-01-08T03:17:21.942Z,100066.92
2023-01-08T03:19:56.355Z,100065.03
2023-01-08T03:22:24.597Z,100057.63
2023-01-08T03:24:54.514Z,100052.45
2023-01-08T03:27:28.235Z,100049.52
2023-01-08T03:29:58.633Z,100045.56
2023-01-08T03:32:31.098Z,100048.67
2023-01-08T03:35:01.337Z,100037.98
2023-01-08T03:37:34.503Z,100035.94
2023-01-08T03:40:39.577Z,100034.02
2023-01-08T03:43:07.389Z,100043.02
2023-01-08T03:45:37.858Z,100042.52
2023-01-08T03:48:07.311Z,100034.44
2023-01-08T03:50:35.430Z,100033.75
2023-01-08T03:53:03.407Z,100033.94
2023-01-08T03:55:31.356Z,100035.16
2023-01-08T03:57:59.170Z,100034.48
2023-01-08T04:00:26.955Z,100032.61
2023-01-08T04:02:54.781Z,100024.34
2023-01-08T04:05:22.531Z,100021.42
2023-01-08T04:07:50.350Z,100023.52
2023-01-08T04:10:18.145Z,100020.41
2023-01-08T04:12:46.024Z,100023.01
2023-01-08T04:15:14.006Z,100023.55
2023-01-08T04:17:41.905Z,100022.85
2023-01-08T04:20:10.609Z,100018.04
2023-01-08T04:22:38.399Z,100016.67
2023-01-08T04:25:06.542Z,100016.34
2023-01-08T04:27:34.302Z,100010.50
2023-01-08T04:30:02.123Z,100012.22
2023-01-08T04:32:29.935Z,100006.73
2023-01-08T04:34:57.793Z,100014.46
2023-01-08T04:37:25.621Z,100012.92
2023-01-08T04:39:53.587Z,100015.34
2023-01-08T04:42:21.401Z,100016.37
2023-01-08T04:44:49.172Z,100008.11
2023-01-08T04:47:16.965Z,100010.02
2023-01-08T04:49:44.753Z,100008.46
2023-01-08T04:52:12.563Z,100003.29
2023-01-08T04:54:40.325Z,100005.36
2023-01-08T04:57:08.309Z,100005.35
2023-01-08T04:59:36.163Z,100002.24
2023-01-08T05:02:04.186Z,99998.63
2023-01-08T05:04:32.301Z,99993.32
2023-01-08T05:07:00.114Z,99988.50
2023-01-08T05:09:28.326Z,99980.05
2023-01-08T05:11:56.191Z,99975.93
2023-01-08T05:14:24.387Z,99971.29
2023-01-08T05:16:52.253Z,99974.55
2023-01-08T05:19:20.052Z,99977.98
2023-01-08T05:21:47.890Z,99980.23
2023-01-08T05:24:15.603Z,99977.66
2023-01-08T05:26:43.410Z,99985.58
2023-01-08T05:29:11.278Z,99990.57
2023-01-08T05:31:39.051Z,99993.84
2023-01-08T05:34:06.856Z,99989.53
2023-01-08T05:36:34.738Z,99985.58
2023-01-08T05:39:02.601Z,99978.52
2023-01-08T05:41:30.463Z,99978.85
2023-01-08T05:43:58.203Z,99991.60
2023-01-08T05:46:26.105Z,99991.26
2023-01-08T05:48:53.911Z,99986.77
2023-01-08T05:51:21.673Z,99987.11
2023-01-08T05:53:49.536Z,99982.13
2023-01-08T05:56:17.355Z,99973.17
2023-01-08T05:59:26.735Z,99969.22
2023-01-08T06:01:54.710Z,99967.86
2023-01-08T06:04:23.222Z,99965.97
2023-01-08T06:06:51.005Z,99967.52
2023-01-08T06:09:19.843Z,99967.34
2023-01-08T06:11:47.795Z,99957.35
2023-01-08T06:14:17.008Z,99945.66
2023-01-08T06:16:45.258Z,99937.92
2023-01-08T06:19:13.541Z,99933.27
2023-01-08T06:21:41.516Z,99931.89
2023-01-08T06:24:09.396Z,99940.15
2023-01-08T06:26:37.301Z,99947.02
2023-01-08T06:29:05.272Z,99949.95
2023-01-08T06:31:33.221Z,99958.55
2023-01-08T06:34:01.219Z,99953.58
2023-01-08T06:36:29.300Z,99953.75
2023-01-08T06:38:57.248Z,99955.13
2023-01-08T06:41:25.179Z,99948.93
2023-01-08T06:43:53.064Z,99945.48
2023-01-08T06:46:21.069Z,99936.54
2023-01-08T06:48:49.294Z,99932.75
2023-01-08T06:51:17.215Z,99936.71
2023-01-08T06:53:49.890Z,99929.99
2023-01-08T06:56:17.759Z,99924.67
2023-01-08T06:58:45.783Z,99915.73
2023-01-08T07:01:15.869Z,99909.70
2023-01-08T07:03:44.424Z,99912.80
2023-01-08T07:06:16.706Z,99918.83
2023-01-08T07:08:45.399Z,99923.13
2023-01-08T07:11:17.075Z,99920.20
2023-01-08T07:13:45.116Z,99910.91
2023-01-08T07:16:15.246Z,99906.94
2023-01-08T07:18:44.094Z,99899.73
2023-01-08T07:21:12.259Z,99904.52
2023-01-08T07:23:41.848Z,99906.60
2023-01-08T07:26:09.777Z,99903.31
2023-01-08T07:28:37.697Z,99906.24
2023-01-08T07:31:06.843Z,99906.77
2023-01-08T07:33:35.777Z,99900.04
2023-01-08T07:36:05.184Z,99896.59
2023-01-08T07:38:33.292Z,99896.77
2023-01-08T07:41:01.175Z,99899.36
2023-01-08T07:43:30.141Z,99904.35
2023-01-08T07:45:58.628Z,99909.16
2023-01-08T07:48:26.555Z,99908.30
2023-01-08T07:50:54.639Z,99911.41
2023-01-08T07:53:22.755Z,99901.77
2023-01-08T07:55:50.733Z,99899.87
2023-01-08T07:58:18.803Z,99895.58
2023-01-08T08:00:47.128Z,99898.66
2023-01-08T08:03:15.304Z,99899.71
2023-01-08T08:05:43.578Z,99902.80
2023-01-08T08:08:12.721Z,99898.69
2023-01-08T08:10:41.918Z,99897.98
2023-01-08T08:13:10.809Z,99903.33
2023-01-08T08:15:41.052Z,99903.84
2023-01-08T08:18:09.957Z,99896.79
2023-01-08T08:20:38.930Z,99894.72
2023-01-08T08:23:15.432Z,99887.48
2023-01-08T08:25:43.845Z,99890.23
2023-01-08T08:28:12.506Z,99888.85
2023-01-08T08:30:42.673Z,99885.77
2023-01-08T08:33:11.456Z,99889.92
2023-01-08T08:35:40.357Z,99890.96
2023-01-08T08:38:08.515Z,99885.77
2023-01-08T08:40:36.542Z,99889.38
2023-01-08T08:43:04.968Z,99885.61
2023-01-08T08:45:33.139Z,99891.09
2023-01-08T08:48:01.167Z,99887.83
2023-01-08T08:50:29.294Z,99890.58
2023-01-08T08:53:01.208Z,99886.27
2023-01-08T08:55:29.680Z,99880.92
2023-01-08T08:58:11.442Z,99885.40
2023-01-08T09:00:46.666Z,99886.42
2023-01-08T09:03:15.488Z,99886.77
2023-01-08T09:05:44.104Z,99885.90
2023-01-08T09:08:15.024Z,99886.08
2023-01-08T09:10:54.313Z,99883.31
2023-01-08T09:13:22.336Z,99887.96
2023-01-08T09:15:50.493Z,99877.28
2023-01-08T09:18:18.522Z,99872.98
2023-01-08T09:20:46.881Z,99861.48
2023-01-08T09:23:14.761Z,99859.05
2023-01-08T09:25:42.590Z,99855.77
2023-01-08T09:28:12.373Z,99856.11
2023-01-08T09:30:40.689Z,99855.59
2023-01-08T09:33:12.460Z,99857.31
2023-01-08T09:35:43.569Z,99856.09
2023-01-08T09:38:11.742Z,99853.67
2023-01-08T09:41:02.556Z,99845.08
2023-01-08T09:43:35.185Z,99840.25
2023-01-08T09:46:07.428Z,99836.48
2023-01-08T09:48:38.346Z,99829.74
2023-01-08T09:51:14.575Z,99830.42
2023-01-08T09:53:43.998Z,99820.96
2023-01-08T09:56:16.513Z,99814.42
2023-01-08T09:58:53.672Z,99815.95
2023-01-08T10:01:25.374Z,99813.17
2023-01-08T10:04:05.715Z,99812.32
2023-01-08T10:06:33.983Z,99806.45
2023-01-08T10:09:01.901Z,99807.29
2023-01-08T10:11:40.093Z,99807.29
2023-01-08T10:14:22.032Z,99800.55
2023-01-08T10:17:01.126Z,99798.48
2023-01-08T10:19:29.623Z,99790.02
2023-01-08T10:21:57.749Z,99787.45
2023-01-08T10:24:34.244Z,99790.20
2023-01-08T10:27:12.454Z,99787.60
2023-01-08T10:29:40.940Z,99780.17
2023-01-08T10:32:19.039Z,99772.58
2023-01-08T10:34:56.788Z,99765.49
2023-01-08T10:37:32.174Z,99766.70
2023-01-08T10:40:08.305Z,99758.44
2023-01-08T10:42:37.337Z,99761.52
2023-01-08T10:45:13.445Z,99762.73
2023-01-08T10:47:47.796Z,99759.98
2023-01-08T10:50:33.494Z,99760.15
2023-01-08T10:53:05.787Z,99759.29
2023-01-08T10:55:37.424Z,99756.70
2023-01-08T10:58:15.397Z,99752.59
2023-01-08T11:00:43.343Z,99748.81
2023-01-08T11:03:32.509Z,99746.75
2023-01-08T11:06:00.440Z,99747.07
2023-01-08T11:08:28.344Z,99747.92
2023-01-08T11:10:59.849Z,99751.36
2023-01-08T11:13:29.461Z,99747.60
2023-01-08T11:16:30.799Z,99742.44
2023-01-08T11:18:58.933Z,99740.37
2023-01-08T11:21:31.966Z,99743.64
2023-01-08T11:24:21.287Z,99739.67
2023-01-08T11:26:54.026Z,99736.92
2023-01-08T11:29:47.493Z,99741.05
2023-01-08T11:32:15.563Z,99736.92
2023-01-08T11:35:03.505Z,99734.49
2023-01-08T11:37:39.549Z,99732.25
2023-01-08T11:40:17.115Z,99732.06
2023-01-08T11:42:56.287Z,99733.62
2023-01-08T11:46:00.385Z,99736.55
2023-01-08T11:49:12.438Z,99731.39
2023-01-08T11:52:12.795Z,99727.77
2023-01-08T11:55:07.673Z,99731.90
2023-01-08T11:57:35.617Z,99731.54
2023-01-08T12:00:03.977Z,99731.88
2023-01-08T12:02:51.319Z,99730.33
2023-01-08T12:05:27.847Z,99724.48
2023-01-08T12:08:04.594Z,99714.51
2023-01-08T12:10:38.560Z,99703.14
2023-01-08T12:13:41.883Z,99692.64
2023-01-08T12:16:43.044Z,99695.39
2023-01-08T12:19:16.896Z,99699.01
2023-01-08T12:22:00.872Z,99699.52
2023-01-08T12:25:09.073Z,99695.90
2023-01-08T12:27:57.428Z,99692.98
2023-01-08T12:30:43.969Z,99685.56
2023-01-08T12:33:20.168Z,99681.60
2023-01-08T12:35:52.245Z,99675.73
2023-01-08T12:38:44.937Z,99672.64
2023-01-08T12:41:22.388Z,99667.28
2023-01-08T12:44:11.636Z,99667.10
2023-01-08T12:46:45.877Z,99654.87
2023-01-08T12:49:19.116Z,99655.91
2023-01-08T12:52:02.557Z,99662.29
2023-01-08T12:54:49.585Z,99666.45
2023-01-08T12:57:45.329Z,99663.17
2023-01-08T13:03:28.327Z,99671.80
2023-01-08T13:06:14.766Z,99672.51
2023-01-08T13:08:51.577Z,99666.30
2023-01-08T13:11:44.561Z,99663.55
2023-01-08T13:14:22.314Z,99657.52
2023-01-08T13:17:07.800Z,99649.61
2023-01-08T13:20:06.313Z,99639.77
2023-01-08T13:22:38.274Z,99636.48
2023-01-08T13:25:12.444Z,99635.61
2023-01-08T13:27:40.981Z,99635.77
2023-01-08T13:30:42.995Z,99633.55
2023-01-08T13:33:43.350Z,99633.73
2023-01-08T13:36:28.398Z,99634.58
2023-01-08T13:39:12.154Z,99628.73
2023-01-08T13:41:57.808Z,99627.55
2023-01-08T13:44:41.943Z,99629.80
2023-01-08T13:47:34.194Z,99630.49
2023-01-08T13:50:20.917Z,99626.73
2023-01-08T13:53:10.439Z,99624.48
2023-01-08T13:55:46.357Z,99617.27
2023-01-08T13:58:30.901Z,99615.72
2023-01-08T14:01:02.218Z,99618.47
2023-01-08T14:03:39.082Z,99615.04
2023-01-08T14:06:23.830Z,99620.56
2023-01-08T14:09:04.424Z,99622.45
2023-01-08T14:11:44.763Z,99624.37
2023-01-08T14:14:18.361Z,99624.04
2023-01-08T14:16:53.162Z,99625.77
2023-01-08T14:19:26.224Z,99622.52
2023-01-08T14:21:57.248Z,99619.27
2023-01-08T14:24:26.700Z,99613.07
2023-01-08T14:27:10.299Z,99614.45
2023-01-08T14:29:45.284Z,99618.07
2023-01-08T14:32:22.050Z,99611.18
2023-01-08T14:34:53.717Z,99607.91
2023-01-08T14:37:21.747Z,99610.67
2023-01-08T14:39:56.110Z,99611.19
2023-01-08T14:42:48.867Z,99609.45
2023-01-08T14:45:24.905Z,99597.39
2023-01-08T14:50:47.094Z,99591.04
2023-01-08T14:53:42.981Z,99587.92
2023-01-08T14:56:16.928Z,99593.08
2023-01-08T14:58:45.658Z,99588.23
2023-01-08T15:04:25.573Z,99571.00
2023-01-08T15:07:21.121Z,99564.08
2023-01-08T15:10:01.290Z,99571.30
2023-01-08T15:12:35.128Z,99562.34
2023-01-08T15:15:11.424Z,99564.08
2023-01-08T15:17:40.422Z,99556.50
2023-01-08T15:20:19.347Z,99548.74
2023-01-08T15:22:47.485Z,99553.95
2023-01-08T15:28:21.677Z,99555.88
2023-01-08T15:30:50.356Z,99552.12
2023-01-08T15:33:24.283Z,99545.76
2023-01-08T15:35:52.488Z,99549.71
2023-01-08T15:38:21.881Z,99544.89
2023-01-08T15:40:51.092Z,99534.22
2023-01-08T15:43:19.587Z,99537.53
2023-01-08T15:45:49.624Z,99540.10
2023-01-08T15:48:17.716Z,99552.85
2023-01-08T15:50:45.730Z,99565.93
2023-01-08T15:53:18.224Z,99561.80
2023-01-08T15:55:47.098Z,99550.61
2023-01-08T15:58:16.282Z,99550.09
2023-01-08T16:00:46.180Z,99540.96
2023-01-08T16:03:15.054Z,99537.15
2023-01-08T16:05:43.077Z,99534.40
2023-01-08T16:08:11.868Z,99541.62
2023-01-08T16:10:39.836Z,99545.75
2023-01-08T16:13:09.693Z,99542.85
2023-01-08T16:15:40.041Z,99535.80
2023-01-08T16:18:07.938Z,99539.42
2023-01-08T16:20:36.380Z,99540.83
2023-01-08T16:23:04.885Z,99545.31
2023-01-08T16:25:32.771Z,99552.73
2023-01-08T16:28:09.961Z,99562.55
2023-01-08T16:30:39.474Z,99563.25
2023-01-08T16:33:07.585Z,99558.94
2023-01-08T16:35:35.611Z,99552.60
2023-01-08T16:38:03.618Z,99553.80
2023-01-08T16:40:31.629Z,99557.42
2023-01-08T16:43:04.282Z,99549.17
2023-01-08T16:45:32.458Z,99545.20
2023-01-08T16:48:00.340Z,99549.52
2023-01-08T16:50:28.397Z,99554.84
2023-01-08T16:52:56.752Z,99538.54
2023-01-08T16:55:24.667Z,99545.61
2023-01-08T16:57:55.372Z,99542.17
2023-01-08T17:00:23.741Z,99541.52
2023-01-08T17:02:52.452Z,99538.95
2023-01-08T17:05:20.680Z,99539.99
2023-01-08T17:07:52.864Z,99534.14
2023-01-08T17:10:29.932Z,99533.11
2023-01-08T17:12:58.378Z,99532.94
2023-01-08T17:15:26.432Z,99531.23
2023-01-08T17:17:54.434Z,99531.05
2023-01-08T17:20:31.455Z,99533.98
2023-01-08T17:23:01.441Z,99531.57
2023-01-08T17:25:29.409Z,99537.25
2023-01-08T17:27:57.919Z,99535.52
2023-01-08T17:30:25.966Z,99532.42
2023-01-08T17:32:54.677Z,99528.29
2023-01-08T17:35:23.001Z,99521.92
2023-01-08T17:37:51.298Z,99520.69
2023-01-08T17:40:19.521Z,99519.84
2023-01-08T17:42:48.276Z,99513.29
2023-01-08T17:45:17.407Z,99502.45
2023-01-08T17:47:45.480Z,99499.69
2023-01-08T17:50:13.656Z,99491.95
2023-01-08T17:52:42.552Z,99485.91
2023-01-08T17:55:10.531Z,99481.47
2023-01-08T17:57:38.455Z,99482.50
2023-01-08T18:00:07.719Z,99479.06
2023-01-08T18:02:36.845Z,99471.67
2023-01-08T18:05:05.524Z,99473.04
2023-01-08T18:07:34.484Z,99472.88
2023-01-08T18:10:04.522Z,99467.05
2023-01-08T18:12:32.657Z,99465.34
2023-01-08T18:15:00.578Z,99467.25
2023-01-08T18:17:31.196Z,99471.57
2023-01-08T18:19:59.291Z,99472.27
2023-01-08T18:22:27.280Z,99473.80
2023-01-08T18:24:55.662Z,99482.06
2023-01-08T18:27:23.773Z,99498.23
2023-01-08T18:29:54.964Z,99497.38
2023-01-08T18:32:26.065Z,99490.85
2023-01-08T18:34:54.007Z,99491.02
2023-01-08T18:37:23.246Z,99484.46
2023-01-08T18:39:51.193Z,99490.64
2023-01-08T18:42:35.053Z,99495.27
2023-01-08T18:45:03.580Z,99489.73
2023-01-08T18:47:31.534Z,99478.90
2023-01-08T18:50:03.237Z,99480.80
2023-01-08T18:52:31.652Z,99485.10
2023-01-08T18:54:59.687Z,99485.42
2023-01-08T18:57:37.775Z,99485.45
2023-01-08T19:00:11.550Z,99478.05
2023-01-08T19:02:39.854Z,99481.66
2023-01-08T19:05:08.436Z,99477.36
2023-01-08T19:07:40.171Z,99478.58
2023-01-08T19:10:10.417Z,99478.38
2023-01-08T19:12:39.222Z,99476.66
2023-01-08T19:15:08.654Z,99476.15
2023-01-08T19:17:36.903Z,99474.77
2023-01-08T19:20:05.893Z,99481.97
2023-01-08T19:22:33.830Z,99488.34
2023-01-08T19:25:02.083Z,99486.10
2023-01-08T19:27:30.060Z,99479.22
2023-01-08T19:29:58.033Z,99484.55
2023-01-08T19:32:26.008Z,99481.28
2023-01-08T19:34:54.323Z,99465.79
2023-01-08T19:37:22.362Z,99460.27
2023-01-08T19:39:50.525Z,99463.35
2023-01-08T19:42:34.786Z,99458.20
2023-01-08T19:45:03.251Z,99452.52
2023-01-08T19:47:31.278Z,99442.91
2023-01-08T19:49:59.854Z,99444.65
2023-01-08T19:52:28.408Z,99436.90
2023-01-08T19:55:05.825Z,99431.20
2023-01-08T19:57:34.061Z,99424.48
2023-01-08T20:00:02.110Z,99413.27
2023-01-08T20:02:30.222Z,99415.16
2023-01-08T20:04:58.197Z,99418.42
2023-01-08T20:07:26.133Z,99415.33
2023-01-08T20:09:54.576Z,99402.07
2023-01-08T20:12:22.784Z,99397.08
2023-01-08T20:14:50.833Z,99403.10
2023-01-08T20:17:19.049Z,99406.40
2023-01-08T20:19:49.470Z,99404.31
2023-01-08T20:22:20.195Z,99403.11
2023-01-08T20:24:55.515Z,99403.80
2023-01-08T20:27:25.662Z,99408.61
2023-01-08T20:29:53.714Z,99401.55
2023-01-08T20:32:23.480Z,99401.20
2023-01-08T20:34:51.573Z,99399.31
2023-01-08T20:37:19.804Z,99396.25
2023-01-08T20:39:47.882Z,99402.27
2023-01-08T20:42:17.768Z,99406.04
2023-01-08T20:44:57.319Z,99396.56
2023-01-08T20:47:25.473Z,99382.48
2023-01-08T20:49:53.574Z,99372.30
2023-01-08T20:52:21.528Z,99367.98
2023-01-08T20:54:50.735Z,99371.64
2023-01-08T20:57:18.829Z,99379.73
2023-01-08T20:59:47.430Z,99379.08
2023-01-08T21:02:15.464Z,99377.71
2023-01-08T21:04:44.034Z,99385.97
2023-01-08T21:07:12.563Z,99379.60
2023-01-08T21:09:40.839Z,99366.88
2023-01-08T21:12:08.743Z,99372.03
2023-01-08T21:14:37.166Z,99371.86
2023-01-08T21:17:05.125Z,99371.16
2023-01-08T21:19:33.247Z,99365.98
2023-01-08T21:22:01.064Z,99366.14
2023-01-08T21:24:29.117Z,99363.91
2023-01-08T21:26:57.167Z,99356.67
2023-01-08T21:29:26.960Z,99358.21
2023-01-08T21:31:55.333Z,99359.39
2023-01-08T21:34:23.371Z,99347.17
2023-01-08T21:36:51.574Z,99340.42
2023-01-08T21:39:19.743Z,99336.13
2023-01-08T21:42:03.780Z,99335.59
2023-01-08T21:44:49.509Z,99329.05
2023-01-08T21:47:18.561Z,99339.91
2023-01-08T21:49:47.324Z,99342.66
2023-01-08T21:52:30.761Z,99311.34
2023-01-08T21:54:58.923Z,99301.00
2023-01-08T21:57:28.228Z,99322.55
2023-01-08T21:59:57.525Z,99332.52
2023-01-08T22:02:34.581Z,99331.33
2023-01-08T22:05:04.010Z,99326.30
2023-01-08T22:07:32.813Z,99314.42
2023-01-08T22:10:01.214Z,99308.91
2023-01-08T22:12:29.696Z,99306.15
2023-01-08T22:14:58.320Z,99301.33
2023-01-08T22:17:29.310Z,99300.61
2023-01-08T22:19:57.979Z,99297.67
2023-01-08T22:22:26.169Z,99295.09
2023-01-08T22:24:54.632Z,99293.04
2023-01-08T22:27:22.732Z,99294.27
2023-01-08T22:29:50.651Z,99299.58
2023-01-08T22:32:18.810Z,99297.38
2023-01-08T22:34:46.979Z,99284.29
2023-01-08T22:37:16.845Z,99273.08
2023-01-08T22:39:45.886Z,99273.92
2023-01-08T22:42:13.883Z,99262.39
2023-01-08T22:44:42.031Z,99259.47
2023-01-08T22:47:10.010Z,99255.85
2023-01-08T22:49:38.491Z,99249.14
2023-01-08T22:52:07.382Z,99241.56
2023-01-08T22:54:35.410Z,99245.00
2023-01-08T22:57:03.471Z,99235.02
2023-01-08T22:59:31.281Z,99219.57
2023-01-08T23:01:59.354Z,99203.06
2023-01-08T23:04:27.331Z,99199.79
2023-01-08T23:06:55.650Z,99188.27
2023-01-08T23:09:23.581Z,99188.15
2023-01-08T23:11:51.576Z,99180.42
2023-01-08T23:14:19.716Z,99175.43
2023-01-08T23:16:47.767Z,99175.63
2023-01-08T23:19:16.322Z,99172.86
2023-01-08T23:21:44.340Z,99161.69
2023-01-08T23:24:14.973Z,99163.39
2023-01-08T23:26:43.101Z,99161.80
2023-01-08T23:29:11.267Z,99167.11
2023-01-08T23:31:39.615Z,99165.91
2023-01-08T23:34:08.140Z,99171.28
2023-01-08T23:36:36.427Z,99170.11
2023-01-08T23:39:05.237Z,99172.68
2023-01-08T23:41:35.043Z,99166.98
2023-01-08T23:44:15.564Z,99153.77
2023-01-08T23:46:43.635Z,99146.20
2023-01-08T23:49:12.020Z,99142.08
2023-01-08T23:51:42.319Z,99149.65
2023-01-08T23:54:11.716Z,99157.56
2023-01-08T23:56:41.862Z,99159.77
2023-01-08T23:59:10.108Z,99161.13
